Terminal Aerodrome Forecast
Issued by NWS

Home | Current Version | Previous Version | Text Only | Print | Product List | Glossary On
Versions: 1 2 3 4 5 6 7 8 9 10 11 12 13 14 15 16
026
FTUS46 KMTR 250543
TAFMRY
TAF
KMRY 250543Z 2506/2606 24006KT P6SM VCSH OVC020
     FM251200 13003KT P6SM VCSH OVC025
     FM251700 26006KT P6SM VCSH SCT030 BKN040
     FM252200 24008KT P6SM SCT030 BKN050
     FM260300 22004KT P6SM BKN030=

USA.gov is the U.S. government's official web portal to all federal, state and local government web resources and services.